createdAt,value
2017-09-09T00:00:27.337Z,17.50
2017-09-09T00:02:54.775Z,17.40
2017-09-09T00:05:22.253Z,17.40
2017-09-09T00:07:49.776Z,17.50
2017-09-09T00:10:17.224Z,17.50
2017-09-09T00:12:45.493Z,17.50
2017-09-09T00:15:13.691Z,17.50
2017-09-09T00:17:41.169Z,17.50
2017-09-09T00:20:08.610Z,17.40
2017-09-09T00:22:36.044Z,17.40
2017-09-09T00:25:04.275Z,17.40
2017-09-09T00:27:31.854Z,17.40
2017-09-09T00:29:59.308Z,17.50
2017-09-09T00:32:26.739Z,17.50
2017-09-09T00:34:54.207Z,17.40
2017-09-09T00:37:21.644Z,17.40
2017-09-09T00:39:49.093Z,17.40
2017-09-09T00:42:16.558Z,17.30
2017-09-09T00:44:43.994Z,17.30
2017-09-09T00:47:11.448Z,17.30
2017-09-09T00:49:38.880Z,17.30
2017-09-09T00:52:07.108Z,17.20
2017-09-09T00:54:34.548Z,17.20
2017-09-09T00:57:02.091Z,17.20
2017-09-09T00:59:29.533Z,17.10
2017-09-09T01:01:56.977Z,17.10
2017-09-09T01:04:25.202Z,17.10
2017-09-09T01:06:52.671Z,17.10
2017-09-09T01:09:20.128Z,17.10
2017-09-09T01:11:47.581Z,17.00
2017-09-09T01:14:15.032Z,17.10
2017-09-09T01:16:42.480Z,17.00
2017-09-09T01:19:09.942Z,17.10
2017-09-09T01:21:37.381Z,17.00
2017-09-09T01:24:04.836Z,17.00
2017-09-09T01:26:32.295Z,17.00
2017-09-09T01:28:59.731Z,16.90
2017-09-09T01:31:27.187Z,17.00
2017-09-09T01:33:54.632Z,16.90
2017-09-09T01:36:22.085Z,16.90
2017-09-09T01:38:50.283Z,17.00
2017-09-09T01:41:17.792Z,17.00
2017-09-09T01:43:45.253Z,17.00
2017-09-09T01:46:12.682Z,16.90
2017-09-09T01:48:40.133Z,16.90
2017-09-09T01:51:07.576Z,17.00
2017-09-09T01:53:35.031Z,17.00
2017-09-09T01:56:02.472Z,17.00
2017-09-09T01:58:29.931Z,17.00
2017-09-09T02:00:57.372Z,17.00
2017-09-09T02:03:24.808Z,16.90
2017-09-09T02:05:53.052Z,17.00
2017-09-09T02:08:20.504Z,16.90
2017-09-09T02:10:47.966Z,17.00
2017-09-09T02:13:15.407Z,17.00
2017-09-09T02:15:42.867Z,17.00
2017-09-09T02:18:10.309Z,17.00
2017-09-09T02:20:37.756Z,17.00
2017-09-09T02:23:05.192Z,17.00
2017-09-09T02:25:32.646Z,16.90
2017-09-09T02:28:00.076Z,16.90
2017-09-09T02:30:27.513Z,16.90
2017-09-09T02:32:54.980Z,16.90
2017-09-09T02:35:22.417Z,16.90
2017-09-09T02:37:49.892Z,16.90
2017-09-09T02:40:17.333Z,16.90
2017-09-09T02:42:44.792Z,16.90
2017-09-09T02:45:12.247Z,16.90
2017-09-09T02:47:39.682Z,16.90
2017-09-09T02:50:07.140Z,16.90
2017-09-09T02:52:34.573Z,16.80
2017-09-09T02:55:02.025Z,16.90
2017-09-09T02:57:29.455Z,16.80
2017-09-09T02:59:56.916Z,16.80
2017-09-09T03:02:25.128Z,16.90
2017-09-09T03:04:52.592Z,16.90
2017-09-09T03:07:20.068Z,16.80
2017-09-09T03:09:47.508Z,16.80
2017-09-09T03:12:14.973Z,16.80
2017-09-09T03:14:42.412Z,16.80
2017-09-09T03:17:09.853Z,16.80
2017-09-09T03:19:37.371Z,16.70
2017-09-09T03:22:04.832Z,16.80
2017-09-09T03:24:32.271Z,16.80
2017-09-09T03:26:59.730Z,16.80
2017-09-09T03:29:27.185Z,16.70
2017-09-09T03:31:54.629Z,16.60
2017-09-09T03:34:22.087Z,16.60
2017-09-09T03:36:50.396Z,16.60
2017-09-09T03:39:17.836Z,16.50
2017-09-09T03:41:45.286Z,16.50
2017-09-09T03:44:12.735Z,16.40
2017-09-09T03:46:40.266Z,16.30
2017-09-09T03:49:07.725Z,16.30
2017-09-09T03:51:35.161Z,16.20
2017-09-09T03:54:02.620Z,16.20
2017-09-09T03:56:30.076Z,16.20
2017-09-09T03:58:57.635Z,16.20
2017-09-09T04:01:25.085Z,16.10
2017-09-09T04:03:52.548Z,16.10
2017-09-09T04:06:19.991Z,16.10
2017-09-09T04:08:47.461Z,16.10
2017-09-09T04:11:14.912Z,16.00
2017-09-09T04:13:42.345Z,16.00
2017-09-09T04:16:10.560Z,15.80
2017-09-09T04:18:38.002Z,15.70
2017-09-09T04:21:05.469Z,15.60
2017-09-09T04:23:33.736Z,15.50
2017-09-09T04:26:01.171Z,15.30
2017-09-09T04:28:30.020Z,15.00
2017-09-09T04:30:57.463Z,15.00
2017-09-09T04:33:24.923Z,14.90
2017-09-09T04:35:52.361Z,14.70
2017-09-09T04:38:19.832Z,14.50
2017-09-09T04:40:47.283Z,14.40
2017-09-09T04:43:15.488Z,14.20
2017-09-09T04:45:43.716Z,14.10
2017-09-09T04:48:11.158Z,14.10
2017-09-09T04:50:38.612Z,14.00
2017-09-09T04:53:06.049Z,13.90
2017-09-09T04:55:34.272Z,14.00
2017-09-09T04:58:01.705Z,13.90
2017-09-09T05:00:29.157Z,13.90
2017-09-09T05:02:56.597Z,13.90
2017-09-09T05:05:24.052Z,13.90
2017-09-09T05:07:52.255Z,13.80
2017-09-09T05:10:19.696Z,13.80
2017-09-09T05:12:47.168Z,13.80
2017-09-09T05:15:14.607Z,13.80
2017-09-09T05:17:42.077Z,13.80
2017-09-09T05:20:09.529Z,13.80
2017-09-09T05:22:36.984Z,13.80
2017-09-09T05:25:04.484Z,13.80
2017-09-09T05:27:32.022Z,13.80
2017-09-09T05:29:59.484Z,13.80
2017-09-09T05:32:26.951Z,13.90
2017-09-09T05:34:54.408Z,13.90
2017-09-09T05:37:21.876Z,13.90
2017-09-09T05:39:49.351Z,13.90
2017-09-09T05:42:17.605Z,13.80
2017-09-09T05:44:45.048Z,13.80
2017-09-09T05:47:13.281Z,13.80
2017-09-09T05:49:40.761Z,13.80
2017-09-09T05:52:08.197Z,13.80
2017-09-09T05:54:35.660Z,13.70
2017-09-09T05:57:03.104Z,13.80
2017-09-09T05:59:30.568Z,13.80
2017-09-09T06:01:58.036Z,13.80
2017-09-09T06:04:25.480Z,13.80
2017-09-09T06:06:52.951Z,13.80
2017-09-09T06:09:20.396Z,13.80
2017-09-09T06:11:47.851Z,13.90
2017-09-09T06:14:15.313Z,13.90
2017-09-09T06:16:42.782Z,13.90
2017-09-09T06:19:10.216Z,13.90
2017-09-09T06:21:37.681Z,14.00
2017-09-09T06:24:05.164Z,14.00
2017-09-09T06:26:32.625Z,14.00
2017-09-09T06:29:00.053Z,14.10
2017-09-09T06:31:27.516Z,14.10
2017-09-09T06:33:54.972Z,14.10
2017-09-09T06:36:22.416Z,14.10
2017-09-09T06:38:49.882Z,14.10
2017-09-09T06:41:17.320Z,14.10
2017-09-09T06:43:44.756Z,14.20
2017-09-09T06:46:12.211Z,14.30
2017-09-09T06:48:40.425Z,14.30
2017-09-09T06:51:07.880Z,14.30
2017-09-09T06:53:35.324Z,14.30
2017-09-09T06:56:02.783Z,14.40
2017-09-09T06:58:30.249Z,14.50
2017-09-09T07:00:57.705Z,14.40
2017-09-09T07:03:25.139Z,14.40
2017-09-09T07:05:52.592Z,14.40
2017-09-09T07:08:20.035Z,14.50
2017-09-09T07:10:48.247Z,14.50
2017-09-09T07:13:15.688Z,14.50
2017-09-09T07:15:43.140Z,14.60
2017-09-09T07:18:10.589Z,14.50
2017-09-09T07:20:38.807Z,14.60
2017-09-09T07:23:06.265Z,14.60
2017-09-09T07:25:33.740Z,14.60
2017-09-09T07:28:01.201Z,14.60
2017-09-09T07:30:28.659Z,14.60
2017-09-09T07:32:56.132Z,14.70
2017-09-09T07:35:24.335Z,14.90
2017-09-09T07:37:51.808Z,14.90
2017-09-09T07:40:19.241Z,15.10
2017-09-09T07:42:46.699Z,15.10
2017-09-09T07:45:14.139Z,15.10
2017-09-09T07:47:41.595Z,15.10
2017-09-09T07:50:09.804Z,15.20
2017-09-09T07:52:37.236Z,15.20
2017-09-09T07:55:04.701Z,15.30
2017-09-09T07:57:32.198Z,15.40
2017-09-09T07:59:59.662Z,15.50
2017-09-09T08:02:27.101Z,15.60
2017-09-09T08:04:54.601Z,15.60
2017-09-09T08:07:22.804Z,15.40
2017-09-09T08:09:50.237Z,15.40
2017-09-09T08:12:18.458Z,15.40
2017-09-09T08:14:45.961Z,15.40
2017-09-09T08:17:14.213Z,15.40
2017-09-09T08:19:41.657Z,15.40
2017-09-09T08:22:09.101Z,15.50
2017-09-09T08:24:36.559Z,15.70
2017-09-09T08:27:04.029Z,15.90
2017-09-09T08:29:31.544Z,16.20
2017-09-09T08:31:59.037Z,16.50
2017-09-09T08:34:26.496Z,16.60
2017-09-09T08:36:53.936Z,16.70
2017-09-09T08:39:21.395Z,17.30
2017-09-09T08:41:48.855Z,18.00
2017-09-09T08:44:16.311Z,18.50
2017-09-09T08:46:43.737Z,18.40
2017-09-09T08:49:11.205Z,18.00
2017-09-09T08:51:39.319Z,17.70
2017-09-09T08:54:06.780Z,17.30
2017-09-09T08:56:34.248Z,17.10
2017-09-09T08:59:02.459Z,16.90
2017-09-09T09:01:29.987Z,16.90
2017-09-09T09:03:58.227Z,17.00
2017-09-09T09:06:25.664Z,17.00
2017-09-09T09:08:53.129Z,16.90
2017-09-09T09:11:20.560Z,16.90
2017-09-09T09:13:48.043Z,16.80
2017-09-09T09:16:15.567Z,16.80
2017-09-09T09:18:43.063Z,16.80
2017-09-09T09:21:10.514Z,16.90
2017-09-09T09:23:37.957Z,17.00
2017-09-09T09:26:05.408Z,17.10
2017-09-09T09:28:32.843Z,17.40
2017-09-09T09:31:00.307Z,17.80
2017-09-09T09:33:27.736Z,18.00
2017-09-09T09:35:55.956Z,17.60
2017-09-09T09:38:23.416Z,17.60
2017-09-09T09:40:50.904Z,17.40
2017-09-09T09:43:18.360Z,17.20
2017-09-09T09:45:45.792Z,17.10
2017-09-09T09:48:13.260Z,17.00
2017-09-09T09:50:40.701Z,16.80
2017-09-09T09:53:08.160Z,16.70
2017-09-09T09:55:35.608Z,16.70
2017-09-09T09:58:03.073Z,16.60
2017-09-09T10:00:30.528Z,16.60
2017-09-09T10:02:57.962Z,16.70
2017-09-09T10:05:25.437Z,16.80
2017-09-09T10:07:52.868Z,16.80
2017-09-09T10:10:20.424Z,16.90
2017-09-09T10:12:47.855Z,17.00
2017-09-09T10:15:16.090Z,17.20
2017-09-09T10:17:43.536Z,17.10
2017-09-09T10:20:11.015Z,17.30
2017-09-09T10:22:38.438Z,17.40
2017-09-09T10:25:17.724Z,17.30
2017-09-09T10:27:45.948Z,17.20
2017-09-09T10:30:13.419Z,17.20
2017-09-09T10:32:40.859Z,17.30
2017-09-09T10:35:08.312Z,17.40
2017-09-09T10:37:35.773Z,17.50
2017-09-09T10:40:03.235Z,17.70
2017-09-09T10:42:30.749Z,17.70
2017-09-09T10:44:58.963Z,17.90
2017-09-09T10:47:26.420Z,17.90
2017-09-09T10:49:53.860Z,17.70
2017-09-09T10:52:21.322Z,17.30
2017-09-09T10:54:48.775Z,17.00
2017-09-09T10:57:16.220Z,17.00
2017-09-09T10:59:43.685Z,17.10
2017-09-09T11:02:11.127Z,17.10
2017-09-09T11:04:38.588Z,17.20
2017-09-09T11:07:06.063Z,17.20
2017-09-09T11:09:33.540Z,17.10
2017-09-09T11:12:00.977Z,17.00
2017-09-09T11:14:28.445Z,16.90
2017-09-09T11:16:55.890Z,16.80
2017-09-09T11:19:23.332Z,16.80
2017-09-09T11:21:50.808Z,16.80
2017-09-09T11:24:18.248Z,16.90
2017-09-09T11:26:45.701Z,17.10
2017-09-09T11:29:13.157Z,17.20
2017-09-09T11:31:40.776Z,17.40
2017-09-09T11:34:08.979Z,18.50
2017-09-09T11:36:36.415Z,18.50
2017-09-09T11:39:04.642Z,20.20
2017-09-09T11:41:32.849Z,20.20
2017-09-09T11:44:00.307Z,20.20
2017-09-09T11:46:28.600Z,19.50
2017-09-09T11:48:56.055Z,19.50
2017-09-09T11:51:24.270Z,19.40
2017-09-09T11:53:52.372Z,19.40
2017-09-09T11:56:19.829Z,19.40
2017-09-09T11:58:47.300Z,19.20
2017-09-09T12:01:14.764Z,19.40
2017-09-09T12:03:42.782Z,19.50
2017-09-09T12:06:10.252Z,19.80
2017-09-09T12:08:38.153Z,20.10
2017-09-09T12:11:05.588Z,20.40
2017-09-09T12:13:33.057Z,20.60
2017-09-09T12:16:00.493Z,20.60
2017-09-09T12:18:27.961Z,20.60
2017-09-09T12:20:55.424Z,20.90
2017-09-09T12:23:22.884Z,21.40
2017-09-09T12:25:50.325Z,21.50
2017-09-09T12:28:17.843Z,21.50
2017-09-09T12:30:45.283Z,21.40
2017-09-09T12:33:12.720Z,21.30
2017-09-09T12:35:40.953Z,20.60
2017-09-09T12:38:08.402Z,20.50
2017-09-09T12:40:35.923Z,20.90
2017-09-09T12:43:04.130Z,21.30
2017-09-09T12:45:31.672Z,21.30
2017-09-09T12:47:59.110Z,21.40
2017-09-09T12:50:26.562Z,21.10
2017-09-09T12:52:54.764Z,20.80
2017-09-09T12:55:23.092Z,20.80
2017-09-09T12:57:51.271Z,20.70
2017-09-09T13:00:19.476Z,20.70
2017-09-09T13:02:46.932Z,20.70
2017-09-09T13:05:14.373Z,20.80
2017-09-09T13:07:43.296Z,20.90
2017-09-09T13:10:10.736Z,20.90
2017-09-09T13:12:38.185Z,20.60
2017-09-09T13:15:05.724Z,20.40
2017-09-09T13:17:33.177Z,20.30
2017-09-09T13:20:01.506Z,20.10
2017-09-09T13:22:28.947Z,20.00
2017-09-09T13:24:56.397Z,20.20
2017-09-09T13:27:23.835Z,20.20
2017-09-09T13:29:51.296Z,20.30
2017-09-09T13:32:19.493Z,20.30
2017-09-09T13:34:46.956Z,20.30
2017-09-09T13:37:14.387Z,20.30
2017-09-09T13:39:41.848Z,20.30
2017-09-09T13:42:09.324Z,20.30
2017-09-09T13:44:36.747Z,20.30
2017-09-09T13:47:04.976Z,20.40
2017-09-09T13:49:32.436Z,20.40
2017-09-09T13:51:59.879Z,20.30
2017-09-09T13:54:27.382Z,20.00
2017-09-09T13:56:55.594Z,19.90
2017-09-09T13:59:23.103Z,19.90
2017-09-09T14:01:51.312Z,19.70
2017-09-09T14:04:18.820Z,19.70
2017-09-09T14:06:46.256Z,19.90
2017-09-09T14:09:13.740Z,20.00
2017-09-09T14:11:41.204Z,19.80
2017-09-09T14:14:08.647Z,19.90
2017-09-09T14:16:36.123Z,20.00
2017-09-09T14:19:04.341Z,19.80
2017-09-09T14:21:31.824Z,19.80
2017-09-09T14:23:59.273Z,19.60
2017-09-09T14:26:26.725Z,19.40
2017-09-09T14:28:54.201Z,19.30
2017-09-09T14:31:21.644Z,19.20
2017-09-09T14:33:49.105Z,19.10
2017-09-09T14:36:16.551Z,19.20
2017-09-09T14:38:44.027Z,19.30
2017-09-09T14:41:12.088Z,19.30
2017-09-09T14:43:39.542Z,19.30
2017-09-09T14:46:06.992Z,19.40
2017-09-09T14:48:35.207Z,19.70
2017-09-09T14:51:03.433Z,19.60
2017-09-09T14:53:30.869Z,19.60
2017-09-09T14:55:58.448Z,19.50
2017-09-09T14:58:25.904Z,19.40
2017-09-09T15:00:53.364Z,19.40
2017-09-09T15:03:20.812Z,19.20
2017-09-09T15:05:48.271Z,19.10
2017-09-09T15:08:15.758Z,19.20
2017-09-09T15:10:43.192Z,19.40
2017-09-09T15:13:10.668Z,19.50
2017-09-09T15:15:38.107Z,19.50
2017-09-09T15:18:05.560Z,19.40
2017-09-09T15:20:33.030Z,19.30
2017-09-09T15:23:00.472Z,19.30
2017-09-09T15:25:27.940Z,19.30
2017-09-09T15:27:55.396Z,19.20
2017-09-09T15:30:22.851Z,19.20
2017-09-09T15:32:50.348Z,19.10
2017-09-09T15:35:18.560Z,19.00
2017-09-09T15:37:46.021Z,18.90
2017-09-09T15:40:13.456Z,18.90
2017-09-09T15:42:40.922Z,18.90
2017-09-09T15:45:08.373Z,18.80
2017-09-09T15:47:35.848Z,18.90
2017-09-09T15:50:03.316Z,18.80
2017-09-09T15:52:30.754Z,18.70
2017-09-09T15:54:58.212Z,18.70
2017-09-09T15:57:25.655Z,18.60
2017-09-09T15:59:53.121Z,18.60
2017-09-09T16:02:20.557Z,18.50
2017-09-09T16:04:48.033Z,18.50
2017-09-09T16:07:15.463Z,18.40
2017-09-09T16:09:42.908Z,18.30
2017-09-09T16:12:11.134Z,18.20
2017-09-09T16:14:39.408Z,18.20
2017-09-09T16:17:06.873Z,18.20
2017-09-09T16:19:34.418Z,18.10
2017-09-09T16:22:01.875Z,18.10
2017-09-09T16:24:29.363Z,17.90
2017-09-09T16:26:56.794Z,17.80
2017-09-09T16:29:24.239Z,17.70
2017-09-09T16:31:51.756Z,17.70
2017-09-09T16:34:19.200Z,17.60
2017-09-09T16:36:47.453Z,17.40
2017-09-09T16:39:14.916Z,17.40
2017-09-09T16:41:42.359Z,17.30
2017-09-09T16:44:09.816Z,17.30
2017-09-09T16:46:37.256Z,17.20
2017-09-09T16:49:04.721Z,17.10
2017-09-09T16:51:32.161Z,17.10
2017-09-09T16:53:59.622Z,17.00
2017-09-09T16:56:27.089Z,17.00
2017-09-09T16:58:54.529Z,17.00
2017-09-09T17:01:22.009Z,16.90
2017-09-09T17:03:49.449Z,16.90
2017-09-09T17:06:16.889Z,16.90
2017-09-09T17:08:44.339Z,16.90
2017-09-09T17:11:11.812Z,16.80
2017-09-09T17:13:39.995Z,16.80
2017-09-09T17:16:07.433Z,16.80
2017-09-09T17:18:35.329Z,16.80
2017-09-09T17:21:02.777Z,16.70
2017-09-09T17:23:30.264Z,16.70
2017-09-09T17:25:57.705Z,16.70
2017-09-09T17:28:25.143Z,16.70
2017-09-09T17:30:52.616Z,16.70
2017-09-09T17:33:20.065Z,16.70
2017-09-09T17:35:47.564Z,16.70
2017-09-09T17:38:15.003Z,16.60
2017-09-09T17:40:43.235Z,16.70
2017-09-09T17:43:10.702Z,16.60
2017-09-09T17:45:38.148Z,16.60
2017-09-09T17:48:05.596Z,16.70
2017-09-09T17:50:33.061Z,16.60
2017-09-09T17:53:00.521Z,16.60
2017-09-09T17:55:27.953Z,16.70
2017-09-09T17:57:55.417Z,16.50
2017-09-09T18:00:22.854Z,16.50
2017-09-09T18:02:50.324Z,16.50
2017-09-09T18:05:17.765Z,16.50
2017-09-09T18:07:45.232Z,16.50
2017-09-09T18:10:12.712Z,16.50
2017-09-09T18:12:40.912Z,16.50
2017-09-09T18:15:08.371Z,16.50
2017-09-09T18:17:35.829Z,16.50
2017-09-09T18:20:04.037Z,16.40
2017-09-09T18:22:31.527Z,16.40
2017-09-09T18:24:58.977Z,16.40
2017-09-09T18:27:26.420Z,16.40
2017-09-09T18:29:53.868Z,16.50
2017-09-09T18:32:21.350Z,16.40
2017-09-09T18:34:48.797Z,16.40
2017-09-09T18:37:16.257Z,16.40
2017-09-09T18:39:43.729Z,16.40
2017-09-09T18:42:11.167Z,16.40
2017-09-09T18:44:38.617Z,16.40
2017-09-09T18:47:06.078Z,16.40
2017-09-09T18:49:33.531Z,16.40
2017-09-09T18:52:00.988Z,16.30
2017-09-09T18:54:28.430Z,16.30
2017-09-09T18:56:55.883Z,16.30
2017-09-09T18:59:23.363Z,16.30
2017-09-09T19:01:50.803Z,16.30
2017-09-09T19:04:18.249Z,16.20
2017-09-09T19:06:45.687Z,16.30
2017-09-09T19:09:13.900Z,16.20
2017-09-09T19:11:41.336Z,16.20
2017-09-09T19:14:08.795Z,16.30
2017-09-09T19:16:36.232Z,16.20
2017-09-09T19:19:04.460Z,16.20
2017-09-09T19:21:31.967Z,16.20
2017-09-09T19:24:00.219Z,16.20
2017-09-09T19:26:27.679Z,16.20
2017-09-09T19:28:55.148Z,16.20
2017-09-09T19:31:22.616Z,16.20
2017-09-09T19:33:50.825Z,16.30
2017-09-09T19:36:19.041Z,16.30
2017-09-09T19:38:47.267Z,16.30
2017-09-09T19:41:14.702Z,16.20
2017-09-09T19:43:42.192Z,16.20
2017-09-09T19:46:09.629Z,16.30
2017-09-09T19:48:37.099Z,16.30
2017-09-09T19:51:04.535Z,16.30
2017-09-09T19:53:32.005Z,16.30
2017-09-09T19:55:59.509Z,16.40
2017-09-09T19:58:26.946Z,16.30
2017-09-09T20:00:54.422Z,16.30
2017-09-09T20:03:21.890Z,16.20
2017-09-09T20:05:50.095Z,16.20
2017-09-09T20:08:17.553Z,16.10
2017-09-09T20:10:45.000Z,16.20
2017-09-09T20:13:12.571Z,16.20
2017-09-09T20:15:40.050Z,16.10
2017-09-09T20:18:07.480Z,16.10
2017-09-09T20:20:34.924Z,16.10
2017-09-09T20:23:02.420Z,16.10
2017-09-09T20:25:29.887Z,16.20
2017-09-09T20:27:58.147Z,16.20
2017-09-09T20:30:25.617Z,16.10
2017-09-09T20:32:53.102Z,16.10
2017-09-09T20:35:20.528Z,16.00
2017-09-09T20:37:48.037Z,15.90
2017-09-09T20:40:15.483Z,15.90
2017-09-09T20:42:43.703Z,15.90
2017-09-09T20:45:11.173Z,15.90
2017-09-09T20:47:38.628Z,15.90
2017-09-09T20:50:06.102Z,16.00
2017-09-09T20:52:33.678Z,16.00
2017-09-09T20:55:01.916Z,16.00
2017-09-09T20:57:30.166Z,16.00
2017-09-09T20:59:57.603Z,16.00
2017-09-09T21:02:25.066Z,15.90
2017-09-09T21:04:52.517Z,15.80
2017-09-09T21:07:19.988Z,15.90
2017-09-09T21:09:47.443Z,15.80
2017-09-09T21:12:14.902Z,15.70
2017-09-09T21:14:42.385Z,15.70
2017-09-09T21:17:09.838Z,15.70
2017-09-09T21:19:37.340Z,15.70
2017-09-09T21:22:05.550Z,15.70
2017-09-09T21:24:33.014Z,15.60
2017-09-09T21:27:00.454Z,15.70
2017-09-09T21:29:27.904Z,15.70
2017-09-09T21:31:55.355Z,15.60
2017-09-09T21:34:22.838Z,15.60
2017-09-09T21:36:50.399Z,15.60
2017-09-09T21:39:17.848Z,15.50
2017-09-09T21:41:45.304Z,15.50
2017-09-09T21:44:12.767Z,15.50
2017-09-09T21:46:40.241Z,15.50
2017-09-09T21:49:07.712Z,15.50
2017-09-09T21:51:35.174Z,15.30
2017-09-09T21:54:02.621Z,15.30
2017-09-09T21:56:30.076Z,15.40
2017-09-09T21:58:57.565Z,15.30
2017-09-09T22:01:25.012Z,15.30
2017-09-09T22:03:53.265Z,15.20
2017-09-09T22:06:20.706Z,15.10
2017-09-09T22:08:48.136Z,15.20
2017-09-09T22:11:15.590Z,15.10
2017-09-09T22:13:43.054Z,15.00
2017-09-09T22:16:10.569Z,15.00
2017-09-09T22:18:38.780Z,14.90
2017-09-09T22:21:06.225Z,14.90
2017-09-09T22:23:33.695Z,14.90
2017-09-09T22:26:01.131Z,14.90
2017-09-09T22:28:28.605Z,14.80
2017-09-09T22:30:56.104Z,14.80
2017-09-09T22:33:23.564Z,14.80
2017-09-09T22:35:51.000Z,14.80
2017-09-09T22:38:18.435Z,14.70
2017-09-09T22:40:45.896Z,14.70
2017-09-09T22:43:13.333Z,14.70
2017-09-09T22:45:40.790Z,14.60
2017-09-09T22:48:08.228Z,14.70
2017-09-09T22:50:35.695Z,14.70
2017-09-09T22:53:03.148Z,14.60
2017-09-09T22:55:30.591Z,14.60
2017-09-09T22:57:59.488Z,14.60
2017-09-09T23:00:26.933Z,14.60
2017-09-09T23:02:55.174Z,14.70
2017-09-09T23:05:22.629Z,14.70
2017-09-09T23:07:50.094Z,14.80
2017-09-09T23:10:17.568Z,14.90
2017-09-09T23:12:45.792Z,14.90
2017-09-09T23:15:13.228Z,14.90
2017-09-09T23:17:40.681Z,14.80
2017-09-09T23:20:08.179Z,14.80
2017-09-09T23:22:35.725Z,14.80
2017-09-09T23:25:03.199Z,15.00
2017-09-09T23:27:30.640Z,15.00
2017-09-09T23:29:58.096Z,15.00
2017-09-09T23:32:26.324Z,14.90
2017-09-09T23:34:54.524Z,14.80
2017-09-09T23:37:22.001Z,14.80
2017-09-09T23:39:49.444Z,14.70
2017-09-09T23:42:17.615Z,14.70
2017-09-09T23:44:45.091Z,14.80
2017-09-09T23:47:12.529Z,14.70
2017-09-09T23:49:40.001Z,14.50
2017-09-09T23:52:08.091Z,14.50
2017-09-09T23:54:35.539Z,14.50
2017-09-09T23:57:03.004Z,14.50
2017-09-09T23:59:30.452Z,14.50
